Time;durP1;ratioP1;P1;durP2;ratioP2;P2;SDS_P1;SDS_P2;PMS_P1;PMS_P2;Temp;Humidity;BMP_temperature;BMP_pressure;BME280_temperature;BME280_humidity;BME280_pressure;Samples;Min_cycle;Max_cycle;Signal;HPM_P1;HPM_P2
2023/08/14 04:22:33;;;;;;;8.70;4.90;;;;;;;19.05;100.00;100120.25;5109823;27;20396;-68
2023/08/14 04:24:59;;;;;;;8.23;5.43;;;;;;;19.03;100.00;100130.44;5108509;28;20379;-67
2023/08/14 04:27:24;;;;;;;11.82;5.10;;;;;;;18.98;100.00;100137.34;5109592;28;20050;-67
2023/08/14 04:29:50;;;;;;;10.35;6.10;;;;;;;18.99;100.00;100140.88;5109264;28;20032;-67
2023/08/14 04:32:15;;;;;;;13.57;6.90;;;;;;;19.04;100.00;100145.56;5109701;28;20042;-67
2023/08/14 04:34:41;;;;;;;13.68;6.97;;;;;;;18.99;100.00;100140.88;5108315;28;20035;-67
2023/08/14 04:37:07;;;;;;;10.82;6.97;;;;;;;19.03;100.00;100139.34;5108281;28;20101;-67
2023/08/14 04:39:34;;;;;;;13.63;7.32;;;;;;;19.09;100.00;100130.31;5108070;28;20123;-67
2023/08/14 04:42:00;;;;;;;10.82;6.45;;;;;;;19.15;100.00;100115.91;5108056;28;20481;-67
2023/08/14 04:44:26;;;;;;;14.15;7.35;;;;;;;19.19;100.00;100105.47;5108057;28;20494;-67
2023/08/14 04:46:51;;;;;;;11.18;5.57;;;;;;;19.14;100.00;100108.84;5108001;28;20040;-67
2023/08/14 04:49:17;;;;;;;19.42;7.60;;;;;;;19.15;100.00;100115.06;5107799;28;20040;-67
2023/08/14 04:51:42;;;;;;;12.02;5.72;;;;;;;19.13;100.00;100101.81;5107976;28;20032;-67
2023/08/14 04:54:08;;;;;;;10.88;6.32;;;;;;;19.17;100.00;100107.56;5107993;28;20032;-67
2023/08/14 04:56:33;;;;;;;14.23;6.13;;;;;;;19.18;100.00;100099.25;5107820;28;20036;-67
2023/08/14 04:58:59;;;;;;;9.32;5.93;;;;;;;19.27;100.00;100104.28;5108872;28;20090;-67
2023/08/14 05:01:24;;;;;;;11.02;6.15;;;;;;;19.31;100.00;100100.91;5108957;28;20465;-67
2023/08/14 05:03:54;;;;;;;11.63;6.40;;;;;;;19.31;100.00;100109.00;5107827;28;20043;-67
2023/08/14 05:06:19;;;;;;;10.55;6.25;;;;;;;19.33;100.00;100108.75;5107686;28;20043;-67
2023/08/14 05:08:45;;;;;;;11.95;5.85;;;;;;;19.28;100.00;100106.75;5107500;28;20036;-67
2023/08/14 05:11:11;;;;;;;10.73;6.20;;;;;;;19.31;100.00;100098.19;5106960;28;20035;-67
2023/08/14 05:13:37;;;;;;;10.60;5.50;;;;;;;19.41;100.00;100092.22;5108837;28;20060;-67
2023/08/14 05:16:02;;;;;;;9.77;5.82;;;;;;;19.48;100.00;100082.09;5108780;28;20502;-66
2023/08/14 05:18:28;;;;;;;11.30;5.72;;;;;;;19.52;100.00;100075.19;5107249;28;20036;-67
2023/08/14 05:20:54;;;;;;;15.57;7.78;;;;;;;19.46;100.00;100074.25;5108479;28;20040;-67
2023/08/14 05:23:20;;;;;;;17.98;6.65;;;;;;;19.51;100.00;100082.47;5107446;28;20161;-67
2023/08/14 05:25:46;;;;;;;23.33;10.43;;;;;;;19.55;100.00;100082.81;5108502;28;20111;-67
2023/08/14 05:28:11;;;;;;;19.95;7.00;;;;;;;19.62;100.00;100072.72;5108526;28;20036;-55
2023/08/14 05:30:42;;;;;;;16.50;7.50;;;;;;;19.64;100.00;100070.63;5108289;28;20092;-53
2023/08/14 05:33:07;;;;;;;20.60;9.77;;;;;;;19.67;100.00;100072.84;5099375;28;20492;-57
2023/08/14 05:35:32;;;;;;;15.55;7.20;;;;;;;19.75;100.00;100082.47;5094820;28;20047;-56
2023/08/14 05:37:59;;;;;;;14.77;7.68;;;;;;;19.81;100.00;100069.88;5094864;28;20127;-56
2023/08/14 05:40:26;;;;;;;15.23;7.68;;;;;;;19.86;100.00;100076.22;5094377;28;20111;-56
2023/08/14 05:43:06;;;;;;;14.82;7.50;;;;;;;19.91;100.00;100084.44;5094678;28;20067;-55
2023/08/14 05:45:37;;;;;;;14.73;8.55;;;;;;;19.98;100.00;100100.53;5094620;28;20056;-54
2023/08/14 05:48:04;;;;;;;17.02;7.32;;;;;;;20.03;100.00;100084.44;5094563;28;20145;-54
2023/08/14 05:50:30;;;;;;;15.20;6.93;;;;;;;20.08;100.00;100081.81;5094528;28;20483;-54
2023/08/14 05:52:59;;;;;;;10.02;6.63;;;;;;;20.12;100.00;100092.97;5094601;28;20487;-54
2023/08/14 05:55:25;;;;;;;13.60;7.25;;;;;;;20.16;100.00;100094.97;5094340;28;20062;-56
2023/08/14 05:57:50;;;;;;;14.95;7.10;;;;;;;20.21;100.00;100092.38;5094369;28;20020;-55
2023/08/14 06:00:16;;;;;;;11.77;6.95;;;;;;;20.28;100.00;100098.47;5094069;28;20502;-55
2023/08/14 06:02:42;;;;;;;17.17;8.38;;;;;;;20.37;100.00;100103.47;5094458;28;20046;-54
2023/08/14 06:05:08;;;;;;;12.57;7.20;;;;;;;20.44;100.00;100096.84;5094256;28;20032;-57
2023/08/14 06:07:34;;;;;;;15.57;6.97;;;;;;;20.54;100.00;100088.16;5094286;28;20374;-57
2023/08/14 06:10:01;;;;;;;16.27;7.37;;;;;;;20.63;100.00;100080.47;5094069;28;20063;-58
2023/08/14 06:12:26;;;;;;;10.80;6.32;;;;;;;20.77;100.00;100071.78;5094117;28;20090;-58
2023/08/14 06:14:51;;;;;;;12.38;7.00;;;;;;;20.92;100.00;100078.53;5094167;28;20506;-57
2023/08/14 06:17:17;;;;;;;12.02;7.13;;;;;;;21.06;100.00;100083.38;5094027;28;20034;-55
2023/08/14 06:19:42;;;;;;;12.20;6.75;;;;;;;21.15;100.00;100070.25;5087532;28;20505;-54
2023/08/14 06:22:07;;;;;;;11.70;6.43;;;;;;;21.25;100.00;100064.97;5083978;28;20028;-56
2023/08/14 06:24:33;;;;;;;11.85;6.65;;;;;;;21.33;100.00;100061.91;5091404;28;20046;-57
2023/08/14 06:26:58;;;;;;;13.05;7.35;;;;;;;21.44;100.00;100060.13;5091515;28;20028;-55
2023/08/14 06:29:23;;;;;;;11.45;6.38;;;;;;;21.52;100.00;100067.88;5092531;28;20525;-55
2023/08/14 06:31:49;;;;;;;10.40;6.38;;;;;;;21.63;100.00;100077.75;5093046;28;20052;-57
2023/08/14 06:34:16;;;;;;;17.80;7.07;;;;;;;21.68;100.00;100074.31;5093320;28;20044;-59
2023/08/14 06:36:42;;;;;;;10.90;6.40;;;;;;;21.73;100.00;100068.13;5093107;28;20032;-57
2023/08/14 06:39:07;;;;;;;11.05;6.15;;;;;;;21.78;100.00;100070.91;5092385;28;20024;-54
2023/08/14 06:41:32;;;;;;;10.25;6.25;;;;;;;21.80;100.00;100068.78;5092948;28;20032;-57
2023/08/14 06:44:03;;;;;;;13.38;7.53;;;;;;;21.84;100.00;100068.03;5088500;28;20093;-56
2023/08/14 06:46:29;;;;;;;13.32;6.10;;;;;;;21.89;100.00;100064.53;5093074;28;20454;-57
2023/08/14 06:48:54;;;;;;;11.98;6.65;;;;;;;21.92;100.00;100055.91;5090932;28;20034;-56
2023/08/14 06:51:19;;;;;;;11.95;6.30;;;;;;;21.94;100.00;100062.72;5083339;28;20043;-54
2023/08/14 06:53:45;;;;;;;10.38;6.28;;;;;;;21.96;100.00;100067.88;5088330;28;20044;-56
2023/08/14 06:56:10;;;;;;;10.70;6.18;;;;;;;22.00;100.00;100065.50;5093097;28;20513;-56
2023/08/14 06:58:36;;;;;;;7.50;5.60;;;;;;;22.07;100.00;100056.09;5092105;28;20036;-57
2023/08/14 07:01:01;;;;;;;9.43;6.47;;;;;;;22.14;100.00;100064.06;5092693;28;20016;-54
2023/08/14 07:03:27;;;;;;;11.13;6.35;;;;;;;22.17;100.00;100064.38;5092849;28;20044;-56
2023/08/14 07:05:52;;;;;;;12.48;6.20;;;;;;;22.20;100.00;100065.75;5092327;28;20036;-56
2023/08/14 07:08:17;;;;;;;27.10;6.90;;;;;;;22.24;100.00;100066.91;5090928;28;20036;-55
2023/08/14 07:10:43;;;;;;;13.38;6.65;;;;;;;22.31;100.00;100077.56;5092101;28;20036;-55
2023/08/14 07:13:09;;;;;;;12.68;6.50;;;;;;;22.35;100.00;100074.06;5092731;28;20028;-58
2023/08/14 07:15:35;;;;;;;11.77;6.07;;;;;;;22.38;100.00;100073.56;5092355;28;20494;-59
2023/08/14 07:18:00;;;;;;;9.38;6.15;;;;;;;22.46;100.00;100070.41;5091385;28;20043;-59
2023/08/14 07:20:26;;;;;;;10.05;5.68;;;;;;;22.51;100.00;100071.53;5092204;28;20081;-54
2023/08/14 07:22:52;;;;;;;10.85;5.90;;;;;;;22.57;100.00;100078.66;5092349;28;20036;-54
2023/08/14 07:25:18;;;;;;;13.90;6.40;;;;;;;22.63;100.00;100078.44;5092599;28;20036;-59
2023/08/14 07:27:44;;;;;;;16.80;6.93;;;;;;;22.74;100.00;100087.50;5092443;28;20040;-57
2023/08/14 07:30:10;;;;;;;10.60;6.32;;;;;;;22.74;100.00;100091.03;5092006;28;20032;-57
2023/08/14 07:32:35;;;;;;;13.30;6.63;;;;;;;22.81;100.00;100100.84;5092049;28;20051;-60
2023/08/14 07:35:01;;;;;;;8.65;5.45;;;;;;;22.86;100.00;100104.47;5092444;28;20040;-59
2023/08/14 07:37:26;;;;;;;14.18;6.57;;;;;;;22.91;100.00;100107.25;5092153;28;20122;-58
2023/08/14 07:39:52;;;;;;;12.75;5.88;;;;;;;23.00;100.00;100116.53;5092084;28;20402;-58
2023/08/14 07:42:17;;;;;;;10.02;6.05;;;;;;;23.08;100.00;100114.44;5092306;28;20467;-58
2023/08/14 07:44:42;;;;;;;8.25;5.20;;;;;;;23.13;100.00;100117.19;5092180;28;20031;-59
2023/08/14 07:47:08;;;;;;;8.77;5.75;;;;;;;23.19;100.00;100110.72;5092121;28;20525;-71
2023/08/14 07:49:34;;;;;;;13.07;6.18;;;;;;;23.24;100.00;100108.06;5091913;28;20035;-71
2023/08/14 07:52:00;;;;;;;14.05;6.00;;;;;;;23.26;100.00;100100.47;5091831;28;20036;-70
2023/08/14 07:54:25;;;;;;;10.88;5.20;;;;;;;23.34;100.00;100097.25;5092230;28;20486;-70
2023/08/14 07:56:53;;;;;;;8.27;5.88;;;;;;;23.38;100.00;100094.84;5091922;28;20046;-70
2023/08/14 07:59:19;;;;;;;8.27;5.18;;;;;;;23.47;100.00;100082.38;5091953;28;20040;-70
2023/08/14 08:01:45;;;;;;;10.13;5.60;;;;;;;23.52;100.00;100083.25;5092145;28;20115;-71
2023/08/14 08:04:10;;;;;;;12.13;5.65;;;;;;;23.59;100.00;100096.59;5092217;28;20107;-71
2023/08/14 08:06:36;;;;;;;12.55;6.13;;;;;;;23.63;100.00;100105.09;5092025;28;20089;-71
2023/08/14 08:09:02;;;;;;;8.65;5.10;;;;;;;23.66;100.00;100110.81;5091782;28;20032;-71
2023/08/14 08:11:28;;;;;;;9.27;5.80;;;;;;;23.75;100.00;100114.69;5090953;28;20451;-70
2023/08/14 08:13:53;;;;;;;8.82;5.20;;;;;;;23.82;100.00;100106.31;5091925;28;20119;-70
2023/08/14 08:16:19;;;;;;;13.23;6.50;;;;;;;23.92;100.00;100109.06;5092070;28;20028;-71
2023/08/14 08:18:44;;;;;;;9.82;5.47;;;;;;;24.06;100.00;100109.38;5091682;28;20043;-71
2023/08/14 08:21:10;;;;;;;9.35;5.10;;;;;;;24.26;100.00;100104.06;5091831;28;20059;-70
2023/08/14 08:23:35;;;;;;;7.00;4.75;;;;;;;24.38;100.00;100112.00;5091997;28;20036;-70
2023/08/14 08:26:00;;;;;;;9.05;4.93;;;;;;;24.51;100.00;100118.84;5091872;28;20100;-70
2023/08/14 08:28:26;;;;;;;9.18;5.32;;;;;;;24.62;98.40;100117.78;5091658;28;20459;-70
2023/08/14 08:30:51;;;;;;;7.47;5.53;;;;;;;24.70;99.04;100113.72;5091749;28;20209;-70
2023/08/14 08:33:16;;;;;;;10.05;5.13;;;;;;;24.81;96.60;100116.19;5091898;28;20123;-70
2023/08/14 08:35:42;;;;;;;8.40;5.38;;;;;;;24.88;96.96;100124.09;5091757;28;20101;-70
2023/08/14 08:38:07;;;;;;;6.88;4.65;;;;;;;24.99;95.85;100125.75;5091775;28;20122;-70
2023/08/14 08:40:33;;;;;;;6.60;4.55;;;;;;;25.06;98.09;100129.03;5091651;28;20035;-70
2023/08/14 08:43:01;;;;;;;8.40;5.07;;;;;;;25.13;97.13;100131.50;5091767;28;20062;-71
2023/08/14 08:45:34;;;;;;;6.57;4.55;;;;;;;25.20;94.74;100134.78;5091675;28;20529;-71
2023/08/14 08:48:02;;;;;;;10.50;4.75;;;;;;;25.31;92.61;100124.69;5091732;28;20122;-70
2023/08/14 08:50:28;;;;;;;7.20;4.90;;;;;;;25.38;94.66;100122.50;5091366;28;20098;-71
2023/08/14 08:52:54;;;;;;;10.65;5.22;;;;;;;25.43;93.31;100115.13;5091633;28;20040;-71
2023/08/14 08:55:20;;;;;;;7.00;4.80;;;;;;;25.54;91.31;100110.47;5091593;28;20426;-71
2023/08/14 08:57:48;;;;;;;8.70;5.30;;;;;;;25.66;92.20;100116.44;5091593;28;20028;-71
2023/08/14 09:00:14;;;;;;;6.68;4.47;;;;;;;25.80;94.08;100113.19;5091460;28;20093;-70
2023/08/14 09:02:39;;;;;;;6.50;4.40;;;;;;;25.92;92.55;100105.50;5091645;28;20036;-71
2023/08/14 09:05:05;;;;;;;6.90;4.45;;;;;;;26.07;91.21;100107.34;5091454;28;20040;-71
2023/08/14 09:07:30;;;;;;;6.85;4.85;;;;;;;26.27;89.01;100118.19;5091103;28;20495;-70
2023/08/14 09:09:56;;;;;;;7.25;4.95;;;;;;;26.45;88.64;100116.75;5095077;28;20118;-71
2023/08/14 09:12:21;;;;;;;6.30;3.92;;;;;;;26.62;86.99;100109.03;5095286;28;20123;-70
2023/08/14 09:15:03;;;;;;;6.47;4.65;;;;;;;26.79;85.92;100108.63;5095188;28;20526;-71
2023/08/14 09:17:29;;;;;;;7.28;4.38;;;;;;;26.99;82.75;100110.38;5095103;28;20050;-70
2023/08/14 09:19:54;;;;;;;5.82;4.38;;;;;;;27.09;83.62;100115.81;5094863;28;20048;-70
2023/08/14 09:22:20;;;;;;;7.15;4.25;;;;;;;27.22;78.94;100109.69;5095147;28;20479;-70
2023/08/14 09:24:48;;;;;;;7.80;4.00;;;;;;;27.27;78.95;100112.38;5095130;28;20063;-70
2023/08/14 09:27:13;;;;;;;6.38;3.88;;;;;;;27.30;77.80;100111.81;5095011;28;20028;-70
2023/08/14 09:29:39;;;;;;;6.60;4.75;;;;;;;27.37;76.16;100122.41;5094836;28;20085;-70
2023/08/14 09:32:04;;;;;;;5.63;4.25;;;;;;;27.44;77.01;100114.69;5094891;28;20048;-70
2023/08/14 09:34:30;;;;;;;7.60;4.03;;;;;;;27.50;77.47;100116.25;5094984;28;20715;-70
2023/08/14 09:36:57;;;;;;;7.97;4.00;;;;;;;27.68;75.10;100111.16;5094720;28;20067;-71
2023/08/14 09:39:25;;;;;;;6.38;4.30;;;;;;;27.73;77.35;100108.41;5094653;28;20043;-70
2023/08/14 09:41:51;;;;;;;5.78;4.18;;;;;;;27.70;74.46;100098.03;5094899;28;20047;-70
2023/08/14 09:44:23;;;;;;;7.50;4.47;;;;;;;28.02;75.37;100105.59;5094733;28;20067;-70
2023/08/14 09:46:54;;;;;;;6.32;4.00;;;;;;;28.04;76.62;100112.44;5094921;28;20425;-70
2023/08/14 09:49:20;;;;;;;8.13;4.10;;;;;;;28.23;73.92;100109.72;5094153;28;20111;-70
2023/08/14 09:51:56;;;;;;;6.50;4.00;;;;;;;28.21;72.80;100116.59;5094576;28;20029;-70
2023/08/14 09:54:32;;;;;;;6.97;3.83;;;;;;;28.33;73.43;100120.56;5094759;28;20282;-71
2023/08/14 09:56:59;;;;;;;5.20;3.80;;;;;;;28.24;73.40;100130.53;5094351;28;20043;-70
2023/08/14 09:59:26;;;;;;;5.85;3.95;;;;;;;28.41;71.88;100123.78;5094348;28;20114;-70
2023/08/14 10:01:53;;;;;;;7.57;3.80;;;;;;;28.84;71.11;100117.13;5092476;28;20032;-70
2023/08/14 10:04:21;;;;;;;4.88;3.33;;;;;;;29.25;69.26;100115.66;5094198;28;20141;-71
2023/08/14 10:06:47;;;;;;;4.93;3.45;;;;;;;29.59;69.09;100109.88;5093968;28;20575;-57
2023/08/14 10:09:14;;;;;;;5.97;3.90;;;;;;;29.89;68.38;100122.19;5093883;28;20036;-71
2023/08/14 10:11:42;;;;;;;6.72;3.90;;;;;;;30.14;62.92;100110.75;5093895;28;20102;-71
2023/08/14 10:14:12;;;;;;;5.15;3.45;;;;;;;30.68;63.42;100113.72;5085881;28;20414;-71
2023/08/14 10:16:39;;;;;;;4.65;3.00;;;;;;;31.00;60.92;100118.16;5093852;28;20410;-71
2023/08/14 10:19:09;;;;;;;5.28;3.10;;;;;;;31.25;59.24;100122.25;5089218;28;20115;-71
2023/08/14 10:21:36;;;;;;;5.47;3.00;;;;;;;31.33;58.20;100124.25;5090521;28;20096;-71
2023/08/14 10:24:03;;;;;;;4.05;3.00;;;;;;;31.02;55.46;100124.97;5093373;28;20506;-70
2023/08/14 10:26:30;;;;;;;4.07;2.97;;;;;;;31.31;61.13;100137.50;5093675;28;20039;-71
2023/08/14 10:28:57;;;;;;;4.32;3.08;;;;;;;31.05;53.85;100127.09;5093294;28;20032;-70
2023/08/14 10:31:24;;;;;;;4.93;2.88;;;;;;;31.36;52.32;100133.78;5093675;28;20111;-71
2023/08/14 10:33:50;;;;;;;3.97;3.00;;;;;;;31.43;54.35;100124.00;5093584;28;20398;-70
2023/08/14 10:36:19;;;;;;;7.13;2.93;;;;;;;31.66;55.26;100137.69;5093436;28;20040;-71
2023/08/14 10:38:46;;;;;;;3.03;2.50;;;;;;;31.58;57.31;100137.34;5093090;28;20119;-71
2023/08/14 10:41:14;;;;;;;4.22;3.17;;;;;;;31.72;55.54;100137.25;5093478;28;20075;-71
2023/08/14 10:43:40;;;;;;;4.22;3.03;;;;;;;32.04;55.19;100146.31;5093410;28;20123;-71
2023/08/14 10:46:09;;;;;;;4.30;2.90;;;;;;;32.09;58.88;100146.16;5093269;28;20115;-71
2023/08/14 10:48:37;;;;;;;5.75;3.05;;;;;;;31.98;52.73;100145.63;5093019;28;20036;-71
2023/08/14 10:51:02;;;;;;;4.25;3.30;;;;;;;32.13;54.71;100149.88;5093083;28;20024;-71
2023/08/14 10:53:31;;;;;;;6.50;3.17;;;;;;;32.62;55.52;100137.72;5093184;28;20559;-71
2023/08/14 10:55:58;;;;;;;3.95;3.22;;;;;;;32.82;54.32;100124.41;5093047;28;20112;-71
2023/08/14 10:58:35;;;;;;;5.80;3.00;;;;;;;33.19;53.88;100121.00;5092991;28;20117;-71
2023/08/14 11:01:01;;;;;;;;;;;;;;;33.15;52.02;100128.31;5093599;28;20524;-69
2023/08/14 11:03:27;;;;;;;;;;;;;;;33.10;52.49;100122.16;5093428;28;19964;-69
2023/08/14 11:05:52;;;;;;;8.25;4.13;;;;;;;33.48;50.67;100128.59;5085803;28;19912;-69
2023/08/14 11:08:18;;;;;;;4.63;3.03;;;;;;;33.79;51.89;100140.53;5081187;28;20040;-68
2023/08/14 11:10:44;;;;;;;4.90;2.53;;;;;;;34.08;50.09;100145.28;5078147;28;20032;-70
2023/08/14 11:13:10;;;;;;;4.10;3.13;;;;;;;33.46;49.85;100141.13;5092945;28;20421;-71
2023/08/14 11:15:38;;;;;;;7.68;3.13;;;;;;;33.07;49.17;100133.84;5092781;28;20040;-69
2023/08/14 11:18:10;;;;;;;4.32;3.40;;;;;;;33.26;47.83;100133.50;5092660;28;20031;-69
2023/08/14 11:20:43;;;;;;;3.53;2.70;;;;;;;33.14;49.37;100134.16;5092552;28;20085;-70
2023/08/14 11:23:10;;;;;;;6.75;3.47;;;;;;;33.19;50.14;100132.06;5091458;28;20035;-70
2023/08/14 11:25:36;;;;;;;8.63;3.28;;;;;;;33.74;49.44;100122.16;5092551;28;20036;-68
2023/08/14 11:28:02;;;;;;;3.63;3.10;;;;;;;33.64;50.93;100117.81;5092536;28;20115;-69
2023/08/14 11:30:32;;;;;;;4.03;3.17;;;;;;;33.82;49.98;100114.97;5091740;28;20085;-69
2023/08/14 11:32:57;;;;;;;6.10;4.50;;;;;;;33.61;46.93;100112.16;5092339;28;20067;-68
2023/08/14 11:35:25;;;;;;;7.10;3.27;;;;;;;33.90;49.08;100103.88;5092362;28;20059;-68
2023/08/14 11:37:51;;;;;;;3.20;2.90;;;;;;;33.88;47.56;100095.13;5092135;28;20032;-68
2023/08/14 11:40:16;;;;;;;3.90;2.90;;;;;;;33.46;47.01;100081.19;5092147;28;20036;-69
2023/08/14 11:42:43;;;;;;;3.67;3.00;;;;;;;33.10;48.46;100080.75;5092369;28;20483;-68
2023/08/14 11:45:09;;;;;;;;;;;;;;;32.68;48.29;100080.47;5092654;28;20036;-68
2023/08/14 11:47:36;;;;;;;6.53;2.85;;;;;;;33.15;49.27;100084.16;5092283;28;19918;-70
2023/08/14 11:50:06;;;;;;;4.90;3.00;;;;;;;33.57;47.37;100078.06;5090872;28;20044;-69
2023/08/14 11:52:33;;;;;;;4.32;3.00;;;;;;;33.79;47.84;100074.25;5092014;28;20059;-69
2023/08/14 11:54:59;;;;;;;4.70;2.72;;;;;;;33.78;46.33;100080.88;5090427;28;20497;-68
2023/08/14 11:57:29;;;;;;;5.07;2.93;;;;;;;34.01;45.74;100082.25;5092109;28;20044;-69
2023/08/14 11:59:56;;;;;;;4.65;3.20;;;;;;;34.48;44.80;100088.47;5091799;28;20035;-69
2023/08/14 12:02:25;;;;;;;4.60;2.92;;;;;;;34.78;43.78;100093.91;5090957;28;20118;-69
2023/08/14 12:04:56;;;;;;;5.20;2.88;;;;;;;35.19;42.77;100103.31;5090510;28;20032;-69
2023/08/14 12:07:22;;;;;;;5.07;3.10;;;;;;;34.42;45.02;100113.88;5074644;28;20089;-68
2023/08/14 12:09:49;;;;;;;4.00;2.80;;;;;;;34.47;44.98;100111.72;5071783;28;20029;-69
2023/08/14 12:12:16;;;;;;;5.55;3.25;;;;;;;34.69;45.24;100107.00;5071724;28;20128;-68
2023/08/14 12:14:43;;;;;;;4.13;3.00;;;;;;;35.40;44.14;100117.91;5071797;28;20036;-68
2023/08/14 12:17:10;;;;;;;4.38;3.03;;;;;;;35.33;42.77;100121.22;5071814;28;20483;-68
2023/08/14 12:19:37;;;;;;;4.72;2.70;;;;;;;35.50;44.05;100123.03;5074370;28;20483;-68
2023/08/14 12:22:03;;;;;;;3.05;2.58;;;;;;;34.92;43.24;100119.38;5074130;28;20037;-68
2023/08/14 12:24:39;;;;;;;3.90;2.72;;;;;;;34.42;43.19;100100.88;5071858;28;20044;-68
2023/08/14 12:27:24;;;;;;;3.13;2.83;;;;;;;33.56;45.23;100102.09;5071767;28;20106;-68
2023/08/14 12:29:50;;;;;;;3.22;2.58;;;;;;;33.08;46.28;100097.66;5071476;28;20032;-69
2023/08/14 12:32:17;;;;;;;4.35;2.92;;;;;;;33.02;46.99;100103.66;5071593;28;20029;-68
2023/08/14 12:34:43;;;;;;;5.75;3.45;;;;;;;32.93;47.83;100098.16;5071761;28;20041;-69
2023/08/14 12:37:14;;;;;;;4.27;3.10;;;;;;;33.28;47.71;100109.13;5071610;28;20033;-68
2023/08/14 12:39:39;;;;;;;3.25;2.60;;;;;;;33.03;48.45;100113.56;5071458;28;20041;-68
2023/08/14 12:42:06;;;;;;;5.32;2.90;;;;;;;33.30;49.77;100109.63;5071727;28;20034;-70
2023/08/14 12:44:32;;;;;;;4.57;2.83;;;;;;;33.30;50.29;100104.91;5075537;28;20108;-69
2023/08/14 12:46:57;;;;;;;4.53;3.03;;;;;;;33.05;51.55;100116.78;5075551;28;20072;-68
2023/08/14 12:49:23;;;;;;;9.50;4.20;;;;;;;32.71;53.91;100112.09;5075368;28;20036;-69
2023/08/14 12:51:51;;;;;;;10.15;5.85;;;;;;;32.02;53.83;100112.78;5075450;28;20039;-69
2023/08/14 12:54:17;;;;;;;5.85;3.35;;;;;;;31.69;54.25;100115.88;5075471;28;20039;-68
2023/08/14 12:56:44;;;;;;;3.60;3.00;;;;;;;31.12;54.96;100104.66;5075433;28;20411;-69
2023/08/14 12:59:10;;;;;;;4.32;2.80;;;;;;;31.13;56.05;100110.97;5075036;28;20033;-69
2023/08/14 13:01:35;;;;;;;5.63;3.20;;;;;;;30.98;57.08;100106.69;5075307;28;20036;-69
2023/08/14 13:04:01;;;;;;;5.37;3.03;;;;;;;30.75;58.58;100109.41;5075338;28;20041;-69
2023/08/14 13:06:27;;;;;;;4.73;3.00;;;;;;;30.63;59.64;100094.53;5075231;28;20029;-69
2023/08/14 13:08:53;;;;;;;5.53;3.45;;;;;;;30.43;63.31;100096.63;5075032;28;20042;-69
2023/08/14 13:11:18;;;;;;;4.17;2.90;;;;;;;30.18;63.98;100094.44;5075035;28;20052;-69
2023/08/14 13:13:44;;;;;;;8.73;3.40;;;;;;;29.90;64.46;100091.69;5075163;28;20040;-70
2023/08/14 13:16:10;;;;;;;5.73;3.23;;;;;;;29.78;64.04;100093.31;5074919;28;20040;-69
2023/08/14 13:18:35;;;;;;;4.32;3.40;;;;;;;29.70;65.23;100084.69;5074785;28;20044;-69
2023/08/14 13:21:01;;;;;;;7.88;4.05;;;;;;;29.73;66.47;100078.59;5074920;28;20124;-69
2023/08/14 13:23:26;;;;;;;4.53;3.55;;;;;;;29.64;66.41;100077.66;5073669;28;20044;-69
2023/08/14 13:25:52;;;;;;;5.75;3.40;;;;;;;29.63;67.17;100065.06;5074887;28;20070;-69
2023/08/14 13:28:17;;;;;;;4.38;3.20;;;;;;;29.62;67.58;100054.41;5074627;28;20072;-68
2023/08/14 13:30:43;;;;;;;4.60;3.60;;;;;;;29.48;67.55;100048.88;5074831;28;20033;-69
2023/08/14 13:33:09;;;;;;;6.30;3.22;;;;;;;29.36;67.23;100043.88;5074773;28;20060;-69
2023/08/14 13:35:34;;;;;;;5.13;3.50;;;;;;;29.18;66.82;100036.53;5074590;28;20482;-69
2023/08/14 13:38:00;;;;;;;4.05;3.45;;;;;;;29.18;67.87;100048.31;5074717;28;20051;-69
2023/08/14 13:40:27;;;;;;;5.97;3.67;;;;;;;29.27;69.42;100051.16;5074326;28;20045;-69
2023/08/14 13:42:53;;;;;;;4.90;3.25;;;;;;;29.23;70.56;100044.66;5074614;28;20036;-69
2023/08/14 13:45:18;;;;;;;7.97;3.13;;;;;;;29.01;72.80;100039.00;5074424;28;20040;-71
2023/08/14 13:47:43;;;;;;;4.15;3.00;;;;;;;28.76;73.77;100051.22;5074560;28;20047;-68
2023/08/14 13:50:09;;;;;;;4.53;3.70;;;;;;;28.64;76.36;100044.25;5074315;28;20067;-70
2023/08/14 13:52:34;;;;;;;6.30;3.70;;;;;;;28.47;78.91;100054.09;5073167;28;20458;-69
2023/08/14 13:55:00;;;;;;;6.28;3.60;;;;;;;28.43;79.85;100053.06;5072643;28;20043;-70
2023/08/14 13:57:28;;;;;;;4.25;3.28;;;;;;;28.37;80.08;100046.88;5078396;28;20403;-70
2023/08/14 13:59:53;;;;;;;4.15;3.40;;;;;;;28.26;82.86;100046.16;5081675;28;20036;-70
2023/08/14 14:02:19;;;;;;;5.63;3.72;;;;;;;28.35;83.47;100044.41;5085046;28;20039;-70
2023/08/14 14:04:44;;;;;;;5.60;3.40;;;;;;;28.45;83.21;100042.66;5083805;28;20039;-70
2023/08/14 14:07:10;;;;;;;4.45;3.22;;;;;;;28.42;83.03;100049.50;5083216;28;20047;-70
2023/08/14 14:09:35;;;;;;;5.75;3.78;;;;;;;28.41;82.17;100049.81;5084636;28;20040;-70
2023/08/14 14:12:00;;;;;;;5.85;3.70;;;;;;;28.37;84.53;100046.88;5084461;28;20170;-70
2023/08/14 14:14:26;;;;;;;6.10;3.80;;;;;;;28.31;87.75;100048.88;5082539;28;20029;-70
2023/08/14 14:17:00;;;;;;;6.07;3.85;;;;;;;28.16;80.44;100040.00;5082911;28;20040;-69
2023/08/14 14:19:26;;;;;;;4.25;3.80;;;;;;;28.19;83.84;100042.16;5083125;28;20403;-70
2023/08/14 14:21:54;;;;;;;8.25;4.22;;;;;;;28.14;85.14;100037.56;5082698;28;20028;-70
2023/08/14 14:24:19;;;;;;;4.25;3.47;;;;;;;28.08;86.48;100031.34;5084407;28;20032;-69
2023/08/14 14:26:45;;;;;;;7.30;4.03;;;;;;;27.87;86.47;100026.44;5083301;28;20037;-69
2023/08/14 14:29:10;;;;;;;7.47;4.32;;;;;;;27.95;89.18;100034.81;5082696;28;20038;-69
2023/08/14 14:31:36;;;;;;;7.07;4.10;;;;;;;27.94;91.15;100026.88;5084303;28;20040;-70
2023/08/14 14:34:01;;;;;;;6.68;4.03;;;;;;;27.83;91.59;100026.19;5081528;28;20033;-69
2023/08/14 14:36:26;;;;;;;8.10;4.13;;;;;;;27.84;88.57;100034.13;5083185;28;20639;-69
2023/08/14 14:38:52;;;;;;;7.95;4.57;;;;;;;27.87;90.07;100026.44;5084671;28;20037;-69
2023/08/14 14:41:17;;;;;;;5.95;4.32;;;;;;;27.82;87.54;100025.38;5084131;28;20063;-70
2023/08/14 14:43:43;;;;;;;4.90;3.60;;;;;;;27.73;88.56;100005.25;5086537;28;20031;-69
2023/08/14 14:46:08;;;;;;;5.97;4.30;;;;;;;27.76;88.08;100018.34;5083412;28;20123;-70
2023/08/14 14:48:34;;;;;;;7.45;4.25;;;;;;;27.88;90.52;100000.69;5085647;28;20465;-69
2023/08/14 14:50:59;;;;;;;6.47;4.30;;;;;;;27.86;89.40;100001.00;5092846;28;20032;-69
2023/08/14 14:53:25;;;;;;;9.57;4.78;;;;;;;27.78;90.45;99990.72;5093153;28;20039;-69
2023/08/14 14:55:50;;;;;;;5.80;4.10;;;;;;;27.85;91.45;99997.44;5093128;28;20044;-70
2023/08/14 14:58:15;;;;;;;5.68;4.18;;;;;;;27.77;89.79;99992.59;5092917;28;20063;-71
2023/08/14 15:00:41;;;;;;;6.78;4.53;;;;;;;27.80;90.28;99992.03;5091851;28;20039;-69
2023/08/14 15:03:06;;;;;;;8.27;4.40;;;;;;;27.81;88.18;99990.09;5093184;28;20414;-69
2023/08/14 15:05:34;;;;;;;5.70;4.40;;;;;;;27.94;88.90;99991.31;5092184;28;20122;-68
2023/08/14 15:08:00;;;;;;;7.95;4.38;;;;;;;28.01;87.33;99987.09;5091722;28;20029;-69
2023/08/14 15:10:26;;;;;;;6.20;4.25;;;;;;;28.02;85.80;99985.16;5092698;28;20048;-68
2023/08/14 15:12:53;;;;;;;6.20;4.05;;;;;;;28.07;84.86;99987.84;5092844;28;20044;-70
2023/08/14 15:15:19;;;;;;;6.07;4.32;;;;;;;28.13;84.56;99984.72;5092829;28;20451;-68
2023/08/14 15:17:46;;;;;;;6.28;4.43;;;;;;;28.29;86.28;99984.50;5092641;28;20040;-69
2023/08/14 15:20:15;;;;;;;;;;;;;;;28.39;84.09;99978.91;5092924;28;20050;-68
2023/08/14 15:22:42;;;;;;;5.60;3.95;;;;;;;28.43;82.82;99979.13;5089760;28;19916;-68
2023/08/14 15:25:11;;;;;;;7.20;4.78;;;;;;;28.43;80.37;99981.84;5087514;28;20525;-69
2023/08/14 15:27:37;;;;;;;4.82;4.07;;;;;;;28.47;77.10;99985.63;5092637;28;20544;-69
2023/08/14 15:30:03;;;;;;;5.38;3.85;;;;;;;28.47;79.44;99971.94;5092463;28;20032;-69
2023/08/14 15:32:29;;;;;;;6.17;3.73;;;;;;;28.48;75.09;99971.63;5092448;28;20044;-68
2023/08/14 15:34:54;;;;;;;7.07;4.35;;;;;;;28.52;75.88;99967.19;5092543;28;20354;-68
2023/08/14 15:37:19;;;;;;;6.60;4.75;;;;;;;28.54;75.36;99964.16;5085683;28;20636;-68
2023/08/14 15:39:45;;;;;;;4.95;4.20;;;;;;;28.48;73.58;99966.16;5089723;28;20050;-69